NCAR-RAP Real-Time Weather Data

Output produced by METARs form (17 December 2018  08:46 UTC)
found at http://weather.rap.ucar.edu/surface/
 
RJSF 170800Z 01014KT 9999 FEW020 06/03 Q1004
RJSF 170700Z 01015KT 9999 FEW020 08/02 Q1004
RJSF 170600Z 35018KT 9999 FEW020 09/03 Q1003
RJSF 170500Z 35018KT 9999 FEW020 10/03 Q1003
RJSF 170400Z 35016KT 9999 FEW035 11/03 Q1003
RJSF 170300Z 36011KT 9999 FEW030 11/03 Q1004
RJSF 170200Z 01012KT 9999 FEW030 SCT120 BKN/// 09/03 Q1005
RJSF 170100Z VRB01KT 9999 FEW005 SCT130 BKN/// 07/02 Q1006
RJSF 170000Z VRB02KT 9999 FEW005 BKN110 BKN130 04/02 Q1008
RJSF 162300Z VRB02KT 9999 FEW005 BKN100 BKN120 03/01 Q1008
RJSF 162200Z 12002KT 9999 FEW005 BKN110 BKN130 03/02 Q1009
RJSF 162140Z 10002KT 9999 FEW005 BKN110 BKN130 02/02 Q1009 RMK 1ST005 5AC110 7AC130 A2980
RJSF 161100Z 14003KT 9999 FEW020 SCT100 BKN120 04/02 Q1015
RJSF 161000Z 18003KT 9999 FEW020 BKN120 03/M01 Q1016
RJSF 160900Z 17004KT 9999 FEW015 BKN020 04/M01 Q1017
RJSF 160800Z 14003KT 9999 FEW015 BKN020 04/M01 Q1018
RJSF 160700Z 14004KT 9999 FEW020 BKN025 BKN/// 04/M03 Q1019
RJSF 160600Z 15007KT 9999 FEW020 BKN025 BKN030 05/M03 Q1019
RJSF 160500Z 19004KT 9999 FEW020 SCT025 BKN030 05/M04 Q1020
RJSF 160400Z 21005KT 9999 FEW025 SCT030 BKN040 05/M05 Q1021
RJSF 160300Z 21003KT 110V270 9999 FEW030 SCT040 BKN/// 05/M05 Q1021
RJSF 160200Z 21005KT 170V250 9999 FEW050 BKN/// 04/M06 Q1023
RJSF 160100Z 20005KT 150V230 9999 FEW050 BKN/// 03/M06 Q1024
RJSF 160000Z 18003KT 9999 FEW050 BKN/// 01/M05 Q1023
RJSF 151100Z 34009KT 9999 FEW030 M01/M06 Q1026
RJSF 151000Z 34007KT 310V020 9999 FEW030 00/M06 Q1026
RJSF 150900Z 33008KT 9999 FEW030 00/M05 Q1025
RJSF 150800Z 32014KT 9999 FEW030 01/M04 Q1025
RJSF 150700Z 33010KT 9999 FEW020 SCT050 01/M04 Q1025
RJSF 150600Z 33009KT 290V010 9999 FEW030 BKN050 BKN060 02/M05 Q1025
RJSF 150500Z 34012KT 300V360 9999 FEW020 SCT040 02/M03 Q1024
RJSF 150400Z 32009KT 260V010 9999 VCSH FEW020 SCT040 BKN050 03/M04 Q1024
RJSF 150300Z 32009G19KT 290V360 9999 -SHSN FEW020 SCT030 BKN050 03/M05 Q1024
RJSF 150200Z 32011KT 280V360 9999 -SHSN FEW020 BKN030 BKN050 02/M05 Q1025
RJSF 150100Z 33013KT 9999 FEW025 BKN030 BKN040 02/M06 Q1025
RJSF 150000Z 35008KT 300V020 9999 -SHSN FEW020 BKN025 BKN035 00/M05 Q1025
RJSF 142300Z 35007KT 9999 FEW020 SCT035 BKN050 M01/M05 Q1024
RJSF 142200Z 02004KT 9999 FEW020 SCT035 M03/M06 Q1024
RJSF 142140Z 35008KT 9999 FEW020 SCT035 M02/M06 Q1023 RMK 1CU020 3CU035 A3023